Time;durP1;ratioP1;P1;durP2;ratioP2;P2;SDS_P1;SDS_P2;PMS_P1;PMS_P2;Temp;Humidity;BMP_temperature;BMP_pressure;BME280_temperature;BME280_humidity;BME280_pressure;Samples;Min_cycle;Max_cycle;Signal;HPM_P1;HPM_P2
2022/09/19 00:01:22;;;;;;;3.40;1.70;;;12.60;99.70;;;;;;4993857;28;20022;-66
2022/09/19 00:03:53;;;;;;;4.43;2.00;;;12.60;99.70;;;;;;4983351;28;20035;-67
2022/09/19 00:06:20;;;;;;;3.72;1.73;;;12.60;99.80;;;;;;4993465;28;20038;-66
2022/09/19 00:08:46;;;;;;;4.15;2.08;;;12.60;99.70;;;;;;4994020;28;20042;-67
2022/09/19 00:11:14;;;;;;;4.93;2.50;;;12.60;99.70;;;;;;4994123;28;20160;-66
2022/09/19 00:13:45;;;;;;;3.83;2.05;;;12.50;99.70;;;;;;4993429;28;20045;-67
2022/09/19 00:16:12;;;;;;;3.15;1.83;;;12.50;99.70;;;;;;4976683;28;20363;-66
2022/09/19 00:18:38;;;;;;;4.28;2.05;;;12.50;99.70;;;;;;4993464;28;20168;-66
2022/09/19 00:21:04;;;;;;;3.92;1.92;;;12.50;99.80;;;;;;4993272;28;20022;-66
2022/09/19 00:26:17;;;;;;;6.15;1.95;;;12.50;99.80;;;;;;4983846;28;20046;-66
2022/09/19 00:28:45;;;;;;;5.05;1.70;;;12.50;99.80;;;;;;4992492;28;20050;-66
2022/09/19 00:31:17;;;;;;;5.03;2.30;;;12.50;99.80;;;;;;4994064;28;20030;-66
2022/09/19 00:33:46;;;;;;;4.63;2.60;;;12.50;99.80;;;;;;4992892;28;20030;-66
2022/09/19 00:36:12;;;;;;;4.75;1.83;;;12.40;99.80;;;;;;4993785;28;20129;-65
2022/09/19 00:38:37;;;;;;;4.82;2.13;;;12.40;99.90;;;;;;4992848;28;20022;-65
2022/09/19 00:41:03;;;;;;;4.85;1.95;;;12.40;99.90;;;;;;4993951;28;20085;-65
2022/09/19 00:43:51;;;;;;;5.03;2.35;;;12.30;99.90;;;;;;4992976;28;20088;-65
2022/09/19 00:46:18;;;;;;;3.42;1.92;;;12.30;99.90;;;;;;4980032;28;20133;-66
2022/09/19 00:48:47;;;;;;;5.45;2.13;;;12.30;99.90;;;;;;4992700;28;20034;-66
2022/09/19 00:51:19;;;;;;;7.00;2.28;;;12.30;99.90;;;;;;4993555;28;20030;-65
2022/09/19 00:53:46;;;;;;;4.50;2.33;;;12.20;99.90;;;;;;4975139;28;20106;-66
2022/09/19 00:56:15;;;;;;;6.65;2.42;;;12.20;99.90;;;;;;4993681;28;20046;-66
2022/09/19 00:58:44;;;;;;;4.57;2.75;;;12.10;99.90;;;;;;4983452;28;20379;-66
2022/09/19 01:01:11;;;;;;;5.25;2.60;;;12.10;99.90;;;;;;4990843;28;20038;-66
2022/09/19 01:03:37;;;;;;;6.15;2.70;;;12.10;99.90;;;;;;4992601;28;20066;-66
2022/09/19 01:06:21;;;;;;;4.93;2.67;;;12.10;99.90;;;;;;4987967;28;20105;-67
2022/09/19 01:09:14;;;;;;;6.80;2.90;;;12.10;99.90;;;;;;4984332;28;20121;-65
2022/09/19 01:12:03;;;;;;;4.95;2.83;;;12.10;99.90;;;;;;4991076;28;20288;-66
2022/09/19 01:14:44;;;;;;;4.80;2.85;;;12.10;99.90;;;;;;4992602;28;20030;-66
2022/09/19 01:17:22;;;;;;;3.58;2.50;;;12.00;99.90;;;;;;4985374;28;20178;-67
2022/09/19 01:19:59;;;;;;;7.28;2.78;;;12.00;99.90;;;;;;4992991;28;20121;-67
2022/09/19 01:23:05;;;;;;;6.15;2.92;;;12.10;99.90;;;;;;4991859;28;20034;-66
2022/09/19 01:25:43;;;;;;;5.05;2.65;;;12.00;99.90;;;;;;4987323;28;20445;-66
2022/09/19 01:28:18;;;;;;;6.00;3.00;;;11.90;99.90;;;;;;4991027;28;20046;-66
2022/09/19 01:31:16;;;;;;;5.68;2.88;;;11.90;99.90;;;;;;4992795;28;20030;-67
2022/09/19 01:33:44;;;;;;;5.32;2.83;;;11.90;99.90;;;;;;4987456;28;20034;-67
2022/09/19 01:36:14;;;;;;;4.80;3.30;;;11.90;99.90;;;;;;4992461;28;20125;-67
2022/09/19 01:38:45;;;;;;;4.68;2.90;;;11.90;99.90;;;;;;4987678;28;20023;-67
2022/09/19 01:41:11;;;;;;;4.53;2.55;;;12.00;99.90;;;;;;4993900;28;20034;-67
2022/09/19 01:43:37;;;;;;;4.82;2.60;;;11.90;99.90;;;;;;4990716;28;20169;-67
2022/09/19 01:46:17;;;;;;;7.65;3.33;;;12.00;99.90;;;;;;4991891;28;20484;-66
2022/09/19 01:48:54;;;;;;;5.20;2.85;;;12.00;99.90;;;;;;4992142;28;20038;-66
2022/09/19 01:51:49;;;;;;;4.60;2.65;;;12.10;99.90;;;;;;4992541;28;20367;-66
2022/09/19 01:54:35;;;;;;;6.10;2.60;;;12.10;99.90;;;;;;4988498;28;20034;-66
2022/09/19 01:57:14;;;;;;;;;;;12.10;99.90;;;;;;4984728;28;20046;-66
2022/09/19 01:59:47;;;;;;;4.45;2.33;;;12.10;99.90;;;;;;4991332;28;19909;-67
2022/09/19 02:02:52;;;;;;;3.35;2.33;;;12.10;99.90;;;;;;4989707;28;20034;-67
2022/09/19 02:05:35;;;;;;;;;;;12.10;99.90;;;;;;4988261;28;20084;-68
2022/09/19 02:08:04;;;;;;;4.07;2.92;;;12.20;99.90;;;;;;4978534;28;19932;-67
2022/09/19 02:10:39;;;;;;;4.97;2.65;;;12.10;99.90;;;;;;4992080;28;20034;-67
2022/09/19 02:13:08;;;;;;;;;;;12.10;99.90;;;;;;4991999;28;20034;-67
2022/09/19 02:15:36;;;;;;;4.35;3.00;;;12.20;99.90;;;;;;4990775;28;20359;-67
2022/09/19 02:18:24;;;;;;;5.35;2.65;;;12.20;99.90;;;;;;4974177;28;20113;-67
2022/09/19 02:21:00;;;;;;;7.00;2.80;;;12.20;99.90;;;;;;4991628;28;20413;-67
2022/09/19 02:23:33;;;;;;;4.95;2.45;;;12.30;99.90;;;;;;4990665;28;20504;-68
2022/09/19 02:26:05;;;;;;;5.30;2.63;;;12.30;99.90;;;;;;4974688;28;20420;-67
2022/09/19 02:28:38;;;;;;;3.78;2.42;;;12.30;99.90;;;;;;4991269;28;20053;-67
2022/09/19 02:31:05;;;;;;;5.50;2.90;;;12.30;99.90;;;;;;4991963;28;20400;-67
2022/09/19 02:33:32;;;;;;;5.10;2.78;;;12.30;99.90;;;;;;4991008;28;20030;-68
2022/09/19 02:36:26;;;;;;;4.65;2.58;;;12.40;99.90;;;;;;4991688;28;20077;-68
2022/09/19 02:39:00;;;;;;;4.43;2.60;;;12.40;99.90;;;;;;4991029;28;20023;-68
2022/09/19 02:41:38;;;;;;;5.00;2.70;;;12.40;99.90;;;;;;4991909;28;20397;-67
2022/09/19 02:44:35;;;;;;;7.47;2.60;;;12.40;99.90;;;;;;4973762;28;20388;-68
2022/09/19 02:47:39;;;;;;;9.45;3.63;;;12.40;99.90;;;;;;4983166;28;20489;-67
2022/09/19 02:50:21;;;;;;;7.22;2.90;;;12.40;99.90;;;;;;4987630;28;20073;-69
2022/09/19 02:52:48;;;;;;;5.95;3.03;;;12.40;99.90;;;;;;4991869;28;20343;-67
2022/09/19 02:55:19;;;;;;;4.10;3.03;;;12.40;99.90;;;;;;4985233;28;20031;-68
2022/09/19 02:57:49;;;;;;;6.25;3.10;;;12.40;99.90;;;;;;4983898;28;20161;-68
2022/09/19 03:00:15;;;;;;;5.18;3.10;;;12.50;99.90;;;;;;4990776;28;20031;-69
2022/09/19 03:02:59;;;;;;;5.78;3.30;;;12.50;99.90;;;;;;4989371;28;20119;-68
2022/09/19 03:05:29;;;;;;;5.05;3.25;;;12.50;99.90;;;;;;4987465;28;20026;-67
2022/09/19 03:08:00;;;;;;;7.13;3.67;;;12.50;99.90;;;;;;4990896;28;20631;-67
2022/09/19 03:10:33;;;;;;;5.13;3.17;;;12.50;99.90;;;;;;4991037;28;20082;-67
2022/09/19 03:13:03;;;;;;;5.72;3.72;;;12.50;99.90;;;;;;4991237;28;20481;-67
2022/09/19 03:15:36;;;;;;;8.15;4.13;;;12.50;99.90;;;;;;4991083;28;20113;-67
2022/09/19 03:18:08;;;;;;;4.53;3.50;;;12.40;99.90;;;;;;4973306;28;20516;-67
2022/09/19 03:20:39;;;;;;;3.53;2.85;;;12.50;99.90;;;;;;4979335;28;20386;-67
2022/09/19 03:23:07;;;;;;;6.13;3.70;;;12.50;99.90;;;;;;4991089;28;20474;-67
2022/09/19 03:25:34;;;;;;;8.30;3.72;;;12.50;99.90;;;;;;4974667;28;20026;-67
2022/09/19 03:28:00;;;;;;;6.43;3.40;;;12.50;99.90;;;;;;4994427;28;20053;-67
2022/09/19 03:30:25;;;;;;;6.55;4.43;;;12.50;99.90;;;;;;4994814;28;20030;-66
2022/09/19 03:32:51;;;;;;;5.07;3.60;;;12.50;99.90;;;;;;5001981;28;20057;-66
2022/09/19 03:35:17;;;;;;;5.63;3.63;;;12.50;99.90;;;;;;4994424;28;20026;-67
2022/09/19 03:37:43;;;;;;;6.90;4.05;;;12.50;99.90;;;;;;4974475;28;20041;-66
2022/09/19 03:40:10;;;;;;;6.10;3.67;;;12.50;99.90;;;;;;4993664;28;20026;-66
2022/09/19 03:42:36;;;;;;;6.85;3.85;;;12.50;99.90;;;;;;4965964;28;20536;-66
2022/09/19 03:45:03;;;;;;;4.75;3.55;;;12.50;99.90;;;;;;4992094;28;20030;-66
2022/09/19 03:47:29;;;;;;;5.88;3.85;;;12.50;99.90;;;;;;4994253;28;20130;-66
2022/09/19 03:49:54;;;;;;;5.45;3.92;;;12.50;99.90;;;;;;4993625;28;20537;-66
2022/09/19 03:52:20;;;;;;;6.78;4.40;;;12.50;99.90;;;;;;4976494;28;20446;-66
2022/09/19 03:54:46;;;;;;;6.00;3.78;;;12.50;99.90;;;;;;4993363;28;20122;-66
2022/09/19 03:57:14;;;;;;;5.85;3.80;;;12.40;99.90;;;;;;4993286;28;20034;-66
2022/09/19 03:59:41;;;;;;;7.68;4.30;;;12.40;99.90;;;;;;4993696;28;20033;-66
2022/09/19 04:02:07;;;;;;;5.97;4.68;;;12.50;99.90;;;;;;4981614;28;20066;-67
2022/09/19 04:04:34;;;;;;;7.00;4.97;;;12.50;99.90;;;;;;4994100;28;20030;-66
2022/09/19 04:07:01;;;;;;;7.40;3.90;;;12.50;99.90;;;;;;4993501;28;20030;-67
2022/09/19 04:09:27;;;;;;;5.97;4.22;;;12.50;99.90;;;;;;4997190;28;20035;-67
2022/09/19 04:11:55;;;;;;;7.30;4.75;;;12.50;99.90;;;;;;4995301;28;20096;-67
2022/09/19 04:14:21;;;;;;;5.65;4.10;;;12.50;99.90;;;;;;4993123;28;20121;-66
2022/09/19 04:16:46;;;;;;;8.07;4.40;;;12.50;99.90;;;;;;4994100;28;20565;-66
2022/09/19 04:19:12;;;;;;;6.05;4.20;;;12.50;99.90;;;;;;4993601;28;20109;-66
2022/09/19 04:21:41;;;;;;;6.30;4.20;;;12.50;99.90;;;;;;4994836;28;20503;-66
2022/09/19 04:24:12;;;;;;;5.82;3.88;;;12.50;99.90;;;;;;4993392;28;20478;-66
2022/09/19 04:26:38;;;;;;;6.07;4.03;;;12.60;99.90;;;;;;4994068;28;20035;-66
2022/09/19 04:29:06;;;;;;;4.90;3.35;;;12.60;99.90;;;;;;4993186;28;20037;-66
2022/09/19 04:31:39;;;;;;;6.05;3.78;;;12.50;99.90;;;;;;4994516;28;20034;-66
2022/09/19 04:34:06;;;;;;;7.28;3.83;;;12.50;99.90;;;;;;4975879;28;20394;-67
2022/09/19 04:36:33;;;;;;;7.18;3.78;;;12.50;99.90;;;;;;4993697;28;20038;-66
2022/09/19 04:39:03;;;;;;;4.78;3.40;;;12.50;99.90;;;;;;4993283;28;20037;-67
2022/09/19 04:41:35;;;;;;;5.75;3.55;;;12.50;99.90;;;;;;4993823;28;20030;-66
2022/09/19 04:44:03;;;;;;;4.97;3.78;;;12.60;99.90;;;;;;4992937;28;20473;-66
2022/09/19 04:46:32;;;;;;;3.65;3.25;;;12.60;99.90;;;;;;4990483;28;20038;-66
2022/09/19 04:48:58;;;;;;;6.40;3.53;;;12.60;99.90;;;;;;4993139;28;20035;-66
2022/09/19 04:51:24;;;;;;;5.88;3.50;;;12.60;99.90;;;;;;4988627;28;20110;-67
2022/09/19 04:53:50;;;;;;;4.35;3.63;;;12.60;99.90;;;;;;4987672;28;20126;-66
2022/09/19 04:56:17;;;;;;;5.75;3.70;;;12.60;99.90;;;;;;4992926;28;20777;-67
2022/09/19 04:58:44;;;;;;;5.82;3.42;;;12.60;99.90;;;;;;4988636;28;20030;-67
2022/09/19 05:01:13;;;;;;;5.22;3.58;;;12.60;99.90;;;;;;4975647;28;20721;-67
2022/09/19 05:03:43;;;;;;;5.82;3.40;;;12.60;99.90;;;;;;4982482;28;20050;-67
2022/09/19 05:06:09;;;;;;;6.03;3.97;;;12.60;99.90;;;;;;4991908;28;20034;-66
2022/09/19 05:08:36;;;;;;;5.93;3.88;;;12.50;99.90;;;;;;4990016;28;20030;-66
2022/09/19 05:11:04;;;;;;;6.63;4.07;;;12.50;99.90;;;;;;4990444;28;20037;-66
2022/09/19 05:13:32;;;;;;;7.05;3.55;;;12.50;99.90;;;;;;4971719;28;20053;-66
2022/09/19 05:16:00;;;;;;;4.70;3.80;;;12.40;99.90;;;;;;4992804;28;20030;-67
2022/09/19 05:18:28;;;;;;;5.43;3.58;;;12.50;99.90;;;;;;4991680;28;20053;-67
2022/09/19 05:20:56;;;;;;;4.90;3.55;;;12.50;99.90;;;;;;4992563;28;20512;-67
2022/09/19 05:23:24;;;;;;;4.68;3.67;;;12.60;99.90;;;;;;4992589;28;20397;-67
2022/09/19 05:25:53;;;;;;;6.03;2.90;;;12.60;99.90;;;;;;4992511;28;20038;-67
2022/09/19 05:28:23;;;;;;;7.30;3.90;;;12.60;99.90;;;;;;4988264;28;20513;-67
2022/09/19 05:30:54;;;;;;;6.18;3.38;;;12.60;99.90;;;;;;4992335;28;20034;-67
2022/09/19 05:33:23;;;;;;;6.30;3.90;;;12.60;99.90;;;;;;4992387;28;20030;-67
2022/09/19 05:35:50;;;;;;;5.40;3.75;;;12.70;99.90;;;;;;4992545;28;20046;-67
2022/09/19 05:38:16;;;;;;;6.25;4.32;;;12.70;99.90;;;;;;4991859;28;20655;-69
2022/09/19 05:40:42;;;;;;;4.80;3.53;;;12.70;99.90;;;;;;4981667;28;20039;-69
2022/09/19 05:43:09;;;;;;;8.05;4.13;;;12.70;99.90;;;;;;4987562;28;20116;-69
2022/09/19 05:45:34;;;;;;;6.28;4.10;;;12.70;99.90;;;;;;4975651;28;20402;-70
2022/09/19 05:48:06;;;;;;;6.20;3.80;;;12.70;99.90;;;;;;4991092;28;20102;-67
2022/09/19 05:50:34;;;;;;;7.40;4.15;;;12.70;99.90;;;;;;4976414;28;20026;-70
2022/09/19 05:55:45;;;;;;;6.03;3.72;;;12.80;99.90;;;;;;4976418;28;20077;-69
2022/09/19 05:58:13;;;;;;;8.00;3.50;;;12.80;99.90;;;;;;4988361;28;20034;-69
2022/09/19 06:00:39;;;;;;;5.90;3.30;;;12.90;99.90;;;;;;4983281;28;20101;-69
2022/09/19 06:03:09;;;;;;;7.55;3.70;;;12.90;99.90;;;;;;4982386;28;20105;-69
2022/09/19 06:05:40;;;;;;;3.95;2.92;;;12.90;99.90;;;;;;4988964;28;20109;-68
2022/09/19 06:08:07;;;;;;;5.40;3.25;;;13.00;99.90;;;;;;4991446;28;20062;-69
2022/09/19 06:10:38;;;;;;;6.30;3.20;;;13.00;99.90;;;;;;4974190;28;20033;-69
2022/09/19 06:13:15;;;;;;;5.80;3.15;;;13.00;99.90;;;;;;4982091;28;20128;-70
2022/09/19 06:15:41;;;;;;;6.53;2.97;;;13.00;99.90;;;;;;4989559;28;20080;-69
2022/09/19 06:18:09;;;;;;;7.88;3.22;;;13.00;99.90;;;;;;4984692;28;20042;-69
2022/09/19 06:20:37;;;;;;;10.98;3.42;;;13.10;99.90;;;;;;4972773;28;20036;-68
2022/09/19 06:23:06;;;;;;;10.02;3.15;;;13.10;99.90;;;;;;4989481;28;20026;-68
2022/09/19 06:25:33;;;;;;;8.43;2.83;;;13.10;99.90;;;;;;4973152;28;20067;-68
2022/09/19 06:28:01;;;;;;;7.70;3.25;;;13.10;99.90;;;;;;4987731;28;20050;-68
2022/09/19 06:30:27;;;;;;;10.90;2.67;;;13.10;99.90;;;;;;4991122;28;20089;-67
2022/09/19 06:32:53;;;;;;;5.35;2.70;;;13.20;99.90;;;;;;4988603;28;20045;-67
2022/09/19 06:35:20;;;;;;;4.93;2.72;;;13.30;99.90;;;;;;4990500;28;20062;-68
2022/09/19 06:37:47;;;;;;;7.93;2.90;;;13.40;99.90;;;;;;4990098;28;20038;-67
2022/09/19 06:40:14;;;;;;;6.40;2.80;;;13.30;99.90;;;;;;4984366;28;20037;-66
2022/09/19 06:42:40;;;;;;;9.00;3.60;;;13.40;99.90;;;;;;4973813;28;20035;-67
2022/09/19 06:45:06;;;;;;;6.72;3.00;;;13.40;99.90;;;;;;4988627;28;20038;-67
2022/09/19 06:47:32;;;;;;;7.82;3.13;;;13.40;99.90;;;;;;4990642;28;20050;-66
2022/09/19 06:50:00;;;;;;;3.75;2.47;;;13.40;99.90;;;;;;4990834;28;20062;-66
2022/09/19 06:52:26;;;;;;;6.97;3.05;;;13.40;99.90;;;;;;4990385;28;20095;-67
2022/09/19 06:54:51;;;;;;;9.80;3.55;;;13.40;99.90;;;;;;4990882;28;20101;-67
2022/09/19 06:57:17;;;;;;;4.57;3.28;;;13.50;99.90;;;;;;4991637;28;20605;-66
2022/09/19 06:59:43;;;;;;;4.47;2.28;;;13.50;99.90;;;;;;4993982;28;20014;-67
2022/09/19 07:02:10;;;;;;;4.55;2.60;;;13.50;99.90;;;;;;4995688;28;20031;-67
2022/09/19 07:04:36;;;;;;;5.72;3.10;;;13.60;99.90;;;;;;4992655;28;20041;-69
2022/09/19 07:07:02;;;;;;;4.95;3.25;;;13.60;99.90;;;;;;4991520;28;20030;-66
2022/09/19 07:09:29;;;;;;;6.10;3.45;;;13.70;99.90;;;;;;4976419;28;20389;-67
2022/09/19 07:11:56;;;;;;;6.30;3.92;;;13.70;99.90;;;;;;4986274;28;20041;-69
2022/09/19 07:14:22;;;;;;;5.95;3.45;;;13.70;99.90;;;;;;4994687;28;20080;-69
2022/09/19 07:16:47;;;;;;;6.72;3.40;;;13.80;99.90;;;;;;4995306;28;20046;-68
2022/09/19 07:19:13;;;;;;;10.27;3.13;;;13.80;99.90;;;;;;4994521;28;20027;-67
2022/09/19 07:21:39;;;;;;;8.70;2.53;;;13.80;99.90;;;;;;4985829;28;20033;-68
2022/09/19 07:24:06;;;;;;;10.18;2.75;;;13.90;99.90;;;;;;4977076;28;20029;-67
2022/09/19 07:26:32;;;;;;;4.53;2.33;;;13.90;99.90;;;;;;4992738;28;20030;-68
2022/09/19 07:28:57;;;;;;;5.15;2.38;;;14.00;99.90;;;;;;4993661;28;20050;-68
2022/09/19 07:31:23;;;;;;;6.78;2.33;;;14.00;99.90;;;;;;4986248;28;20038;-68
2022/09/19 07:33:49;;;;;;;10.13;2.40;;;14.10;99.90;;;;;;4994811;28;20034;-66
2022/09/19 07:36:14;;;;;;;4.50;1.92;;;14.20;99.90;;;;;;4993563;28;20044;-66
2022/09/19 07:38:40;;;;;;;6.75;2.15;;;14.10;99.90;;;;;;4994619;28;20436;-66
2022/09/19 07:41:06;;;;;;;5.07;2.40;;;14.20;99.90;;;;;;4993902;28;20537;-67
2022/09/19 07:43:32;;;;;;;5.30;2.90;;;14.20;99.90;;;;;;4994778;28;20142;-67
2022/09/19 07:45:57;;;;;;;3.92;2.20;;;14.20;99.90;;;;;;4989538;28;20025;-67
2022/09/19 07:48:23;;;;;;;6.03;2.75;;;14.20;99.90;;;;;;4991425;28;20034;-67
2022/09/19 07:50:49;;;;;;;4.13;1.80;;;14.20;99.90;;;;;;4985534;28;20034;-67
2022/09/19 07:53:17;;;;;;;3.05;1.90;;;14.20;99.90;;;;;;4990460;28;20058;-67
2022/09/19 07:55:47;;;;;;;4.20;1.95;;;14.30;99.90;;;;;;4992843;28;20031;-67
2022/09/19 07:58:13;;;;;;;4.88;1.83;;;14.30;99.90;;;;;;4992980;28;20030;-67
2022/09/19 08:00:40;;;;;;;5.28;2.08;;;14.30;99.90;;;;;;4988746;28;20390;-68
2022/09/19 08:03:12;;;;;;;5.32;2.40;;;14.40;99.90;;;;;;4989713;28;20034;-68
2022/09/19 08:05:41;;;;;;;3.78;1.77;;;14.50;99.90;;;;;;4987783;28;20478;-68
2022/09/19 08:08:09;;;;;;;2.88;1.73;;;14.50;99.90;;;;;;4981276;28;20385;-67
2022/09/19 08:10:36;;;;;;;3.85;2.33;;;14.50;99.90;;;;;;4992846;28;20022;-68
2022/09/19 08:13:04;;;;;;;2.38;1.70;;;14.60;99.90;;;;;;4992868;28;20042;-68
2022/09/19 08:15:33;;;;;;;3.40;1.80;;;14.60;99.90;;;;;;4988580;28;20031;-68
2022/09/19 08:17:58;;;;;;;2.75;1.70;;;14.60;99.90;;;;;;4989193;28;20034;-67
2022/09/19 08:20:25;;;;;;;4.20;1.98;;;14.80;99.90;;;;;;4990017;28;20238;-67
2022/09/19 08:22:56;;;;;;;3.92;1.90;;;14.80;99.90;;;;;;4978310;28;20502;-67
2022/09/19 08:25:23;;;;;;;4.57;2.60;;;14.90;99.90;;;;;;4984080;28;20038;-67
2022/09/19 08:27:50;;;;;;;3.65;2.05;;;14.90;99.90;;;;;;4993186;28;20038;-67
2022/09/19 08:30:17;;;;;;;3.65;1.77;;;15.00;99.90;;;;;;4992988;28;20039;-67
2022/09/19 08:32:47;;;;;;;3.85;2.00;;;15.10;99.90;;;;;;4982079;28;20019;-68
2022/09/19 08:35:15;;;;;;;3.03;1.88;;;15.10;99.90;;;;;;4993191;28;20080;-68
2022/09/19 08:37:43;;;;;;;3.33;1.58;;;15.20;99.90;;;;;;4985651;28;20077;-67
2022/09/19 08:40:25;;;;;;;5.97;1.88;;;15.30;99.90;;;;;;4983880;28;20547;-68
2022/09/19 08:43:00;;;;;;;4.78;2.10;;;15.40;99.90;;;;;;4988481;28;20548;-68
2022/09/19 08:45:25;;;;;;;;;;;15.50;99.90;;;;;;4985006;28;20385;-68
2022/09/19 08:47:52;;;;;;;5.30;1.55;;;15.60;99.80;;;;;;4993061;28;19910;-68
2022/09/19 08:50:22;;;;;;;5.93;1.90;;;15.60;99.90;;;;;;4991926;28;20118;-67
2022/09/19 08:52:52;;;;;;;4.75;1.60;;;15.70;99.90;;;;;;4986624;28;20030;-68
2022/09/19 08:55:22;;;;;;;7.75;2.42;;;15.80;99.90;;;;;;4988392;28;20034;-67
2022/09/19 08:57:58;;;;;;;4.95;1.85;;;15.90;99.60;;;;;;4984675;28;20049;-67
2022/09/19 09:00:25;;;;;;;4.38;2.10;;;15.90;99.30;;;;;;4985059;28;20022;-67
2022/09/19 09:02:51;;;;;;;5.78;1.70;;;15.90;99.50;;;;;;4989936;28;20038;-67
2022/09/19 09:05:57;;;;;;;2.95;1.33;;;16.00;99.30;;;;;;4992325;28;20041;-67
2022/09/19 09:08:33;;;;;;;3.50;1.40;;;16.00;99.30;;;;;;4988304;28;20036;-68
2022/09/19 09:11:22;;;;;;;5.85;1.33;;;16.10;99.30;;;;;;4992333;28;20058;-67
2022/09/19 09:14:26;;;;;;;7.85;1.40;;;16.10;99.00;;;;;;4989941;28;20121;-67
2022/09/19 09:17:14;;;;;;;2.13;1.25;;;16.10;98.70;;;;;;4980723;28;20073;-67
2022/09/19 09:20:15;;;;;;;2.78;1.40;;;16.00;98.70;;;;;;4987876;28;20093;-68
2022/09/19 09:22:51;;;;;;;7.43;1.38;;;16.10;98.60;;;;;;4970774;28;20036;-67
2022/09/19 09:25:29;;;;;;;3.22;1.20;;;16.10;98.50;;;;;;4986443;28;20031;-67
2022/09/19 09:27:58;;;;;;;3.35;1.17;;;16.20;98.30;;;;;;4990945;28;20050;-67
2022/09/19 09:30:24;;;;;;;3.83;1.48;;;16.30;98.30;;;;;;4992325;28;20030;-67
2022/09/19 09:32:56;;;;;;;5.18;1.33;;;16.20;98.10;;;;;;4990512;28;20027;-66
2022/09/19 09:35:30;;;;;;;3.55;1.30;;;16.30;98.20;;;;;;4991917;28;20030;-67
2022/09/19 09:38:15;;;;;;;2.00;1.15;;;16.30;98.20;;;;;;4990436;28;20066;-67
2022/09/19 09:43:59;;;;;;;7.25;1.48;;;16.50;98.10;;;;;;4984937;28;20088;-67
2022/09/19 09:46:54;;;;;;;5.10;1.50;;;16.60;98.00;;;;;;4979351;28;20038;-67
2022/09/19 09:49:29;;;;;;;2.92;1.35;;;16.70;97.50;;;;;;4981365;28;20027;-67
2022/09/19 09:52:13;;;;;;;3.20;1.15;;;16.80;97.60;;;;;;4965765;28;20061;-67
2022/09/19 09:58:01;;;;;;;2.58;1.50;;;17.00;97.30;;;;;;4987695;28;20045;-66
2022/09/19 10:03:49;;;;;;;2.53;1.30;;;17.10;96.70;;;;;;4980978;28;20053;-66
2022/09/19 10:06:38;;;;;;;1.60;1.10;;;17.00;96.90;;;;;;4988581;28;20034;-67
2022/09/19 10:09:09;;;;;;;3.05;1.33;;;16.80;97.20;;;;;;4988509;28;20041;-68
2022/09/19 10:11:45;;;;;;;6.30;1.30;;;16.60;97.70;;;;;;4991505;28;20030;-68
2022/09/19 10:14:20;;;;;;;2.17;1.00;;;16.40;97.80;;;;;;4990557;28;20500;-68
2022/09/19 10:16:48;;;;;;;4.38;1.13;;;16.20;97.60;;;;;;4986801;28;20497;-67
2022/09/19 10:19:26;;;;;;;3.47;1.27;;;16.10;97.60;;;;;;4990311;28;20045;-67
2022/09/19 10:21:54;;;;;;;2.03;1.00;;;15.90;97.50;;;;;;4986867;28;20109;-68
2022/09/19 10:24:56;;;;;;;1.55;1.08;;;15.80;97.70;;;;;;4990370;28;20038;-67
2022/09/19 10:27:45;;;;;;;3.53;1.10;;;15.70;97.80;;;;;;4986620;28;20113;-67
2022/09/19 10:30:25;;;;;;;4.57;1.70;;;15.60;97.80;;;;;;4985209;28;20038;-67
2022/09/19 10:32:52;;;;;;;4.20;1.02;;;15.50;97.90;;;;;;4984731;28;20027;-69
2022/09/19 10:35:31;;;;;;;2.85;1.25;;;15.40;97.80;;;;;;4985700;28;20027;-69
2022/09/19 10:38:13;;;;;;;2.30;0.93;;;15.20;98.00;;;;;;4983661;28;20050;-70
2022/09/19 10:41:00;;;;;;;2.08;1.10;;;15.10;97.90;;;;;;4985474;28;20042;-71
2022/09/19 10:43:40;;;;;;;1.70;1.00;;;15.00;97.70;;;;;;4989110;28;20544;-71
2022/09/19 10:46:09;;;;;;;3.17;1.27;;;14.70;97.80;;;;;;4968181;28;20041;-72
2022/09/19 10:48:40;;;;;;;2.88;1.67;;;14.50;98.10;;;;;;4984761;28;20068;-71
2022/09/19 10:51:08;;;;;;;1.60;0.90;;;14.40;98.20;;;;;;4975964;28;20035;-71
2022/09/19 10:53:38;;;;;;;1.13;0.98;;;14.40;98.20;;;;;;4975405;28;20144;-71
2022/09/19 10:56:26;;;;;;;2.30;0.90;;;14.30;98.10;;;;;;4985743;28;20070;-71
2022/09/19 10:59:18;;;;;;;1.77;1.05;;;14.20;98.10;;;;;;4988604;28;20042;-71
2022/09/19 11:02:08;;;;;;;1.90;1.20;;;14.10;98.40;;;;;;4987452;28;20125;-70
2022/09/19 11:04:36;;;;;;;2.50;0.95;;;14.10;98.40;;;;;;4975977;28;20086;-70
2022/09/19 11:07:16;;;;;;;1.80;1.10;;;14.00;98.40;;;;;;4991102;28;20069;-70
2022/09/19 11:09:44;;;;;;;1.95;1.30;;;14.10;98.50;;;;;;4981776;28;20106;-69
2022/09/19 11:12:16;;;;;;;1.75;1.10;;;14.10;98.40;;;;;;4992588;28;20042;-71
2022/09/19 11:14:48;;;;;;;1.42;0.80;;;14.10;98.40;;;;;;4984778;28;20105;-71
2022/09/19 11:17:33;;;;;;;3.60;1.00;;;14.10;98.50;;;;;;4989486;28;20038;-71
2022/09/19 11:20:18;;;;;;;2.33;0.98;;;14.20;98.60;;;;;;5004141;28;20033;-72
2022/09/19 11:23:13;;;;;;;2.55;1.13;;;14.40;98.70;;;;;;4985025;28;20026;-70
2022/09/19 11:26:06;;;;;;;5.07;1.10;;;14.50;98.90;;;;;;4981302;28;20058;-69
2022/09/19 11:29:02;;;;;;;3.28;1.40;;;14.60;98.90;;;;;;4987479;28;20046;-70
2022/09/19 11:32:03;;;;;;;1.83;1.25;;;14.70;99.10;;;;;;4987673;28;20106;-72
2022/09/19 11:34:38;;;;;;;3.30;1.40;;;14.90;99.20;;;;;;4995475;28;20093;-69
2022/09/19 11:37:29;;;;;;;6.28;1.63;;;15.00;99.20;;;;;;5003488;28;20042;-72
2022/09/19 11:40:01;;;;;;;1.92;1.67;;;15.10;99.30;;;;;;4980034;28;20045;-69
2022/09/19 11:42:38;;;;;;;3.40;1.45;;;15.30;99.30;;;;;;4997943;28;20452;-70
2022/09/19 11:45:16;;;;;;;3.80;1.65;;;15.40;99.20;;;;;;4987151;28;20030;-70
2022/09/19 11:48:01;;;;;;;6.85;1.70;;;15.60;99.40;;;;;;4992767;28;20065;-71
2022/09/19 11:50:56;;;;;;;15.52;6.22;;;15.70;99.40;;;;;;4988092;28;20042;-72
2022/09/19 11:53:48;;;;;;;11.07;4.60;;;15.80;99.30;;;;;;5000913;28;20031;-73
2022/09/19 11:56:38;;;;;;;8.80;3.38;;;15.90;99.20;;;;;;4987430;28;20034;-73
2022/09/19 11:59:30;;;;;;;8.27;3.00;;;15.90;99.20;;;;;;4976927;28;20035;-73
2022/09/19 12:02:20;;;;;;;2.35;1.65;;;16.00;99.20;;;;;;4992229;28;20034;-73
2022/09/19 12:05:03;;;;;;;3.63;1.80;;;16.10;99.30;;;;;;5006540;28;20030;-72
2022/09/19 12:07:41;;;;;;;3.60;1.70;;;16.20;99.40;;;;;;5002597;28;20050;-73
2022/09/19 12:10:24;;;;;;;3.80;1.38;;;16.40;99.30;;;;;;4982823;28;20030;-72
2022/09/19 12:13:00;;;;;;;3.95;1.30;;;16.60;99.30;;;;;;4988921;28;20026;-73
2022/09/19 12:15:34;;;;;;;3.08;1.70;;;16.80;99.40;;;;;;4994957;28;20033;-71
2022/09/19 12:18:23;;;;;;;7.90;2.10;;;16.90;99.10;;;;;;4993930;28;20039;-72
2022/09/19 12:20:53;;;;;;;5.50;2.05;;;16.70;98.10;;;;;;4961628;28;20430;-72
2022/09/19 12:26:22;;;;;;;5.18;1.52;;;15.90;98.30;;;;;;4993871;28;20038;-71
2022/09/19 12:29:15;;;;;;;3.83;1.55;;;15.60;98.10;;;;;;4994426;28;20077;-71
2022/09/19 12:31:45;;;;;;;3.47;1.30;;;15.40;98.40;;;;;;4993837;28;20105;-72
2022/09/19 12:34:35;;;;;;;3.70;1.60;;;15.30;98.70;;;;;;4989554;28;20031;-73
2022/09/19 12:37:36;;;;;;;1.80;1.20;;;15.20;98.70;;;;;;4982455;28;20030;-69
2022/09/19 12:40:30;;;;;;;2.00;1.02;;;15.10;99.00;;;;;;4985312;28;20026;-70
2022/09/19 12:43:11;;;;;;;2.25;1.25;;;15.00;99.10;;;;;;4983843;28;20102;-70
2022/09/19 12:46:05;;;;;;;2.70;1.15;;;14.90;99.30;;;;;;4990050;28;20084;-69
2022/09/19 12:48:40;;;;;;;4.07;1.27;;;14.90;99.50;;;;;;4971320;28;20048;-70
2022/09/19 12:51:10;;;;;;;2.45;1.20;;;14.80;99.70;;;;;;4967068;28;20117;-69
2022/09/19 12:53:47;;;;;;;2.03;1.20;;;14.80;99.80;;;;;;4993277;28;20052;-69
2022/09/19 12:56:40;;;;;;;2.83;1.23;;;14.70;99.90;;;;;;4993851;28;20060;-69
2022/09/19 12:59:12;;;;;;;4.45;1.90;;;14.70;99.90;;;;;;4982117;28;20074;-71
2022/09/19 13:01:40;;;;;;;4.82;1.50;;;14.60;99.90;;;;;;4994413;28;20117;-71
2022/09/19 13:04:29;;;;;;;4.25;1.90;;;14.60;99.90;;;;;;4992467;28;20065;-72
2022/09/19 13:07:10;;;;;;;3.90;1.67;;;14.60;99.90;;;;;;4989336;28;20109;-72
2022/09/19 13:09:55;;;;;;;3.65;1.92;;;14.50;99.90;;;;;;4979132;28;20086;-72
2022/09/19 13:12:37;;;;;;;3.13;1.50;;;14.50;99.90;;;;;;4985055;28;20100;-72
2022/09/19 13:15:23;;;;;;;7.70;2.05;;;14.50;99.90;;;;;;4983960;28;20030;-72
2022/09/19 13:23:30;;;;;;;11.70;2.25;;;14.60;99.90;;;;;;4988500;28;20057;-72
2022/09/19 13:25:57;;;;;;;2.60;1.50;;;14.60;99.90;;;;;;4988004;28;20030;-72
2022/09/19 13:28:28;;;;;;;9.73;1.63;;;14.70;99.90;;;;;;4989227;28;20416;-73
2022/09/19 13:31:17;;;;;;;4.43;1.75;;;14.70;99.90;;;;;;4959327;28;20084;-74
2022/09/19 13:33:52;;;;;;;3.25;1.83;;;14.80;99.90;;;;;;4991771;28;20385;-72
2022/09/19 13:36:26;;;;;;;4.50;2.17;;;14.80;99.90;;;;;;4992165;28;20140;-72
2022/09/19 13:38:58;;;;;;;3.95;1.80;;;14.90;99.90;;;;;;4985671;28;20033;-73
2022/09/19 13:42:09;;;;;;;4.93;1.85;;;14.90;99.90;;;;;;4987705;28;20022;-72
2022/09/19 13:44:55;;;;;;;4.22;1.92;;;14.90;99.90;;;;;;4986041;28;20460;-72